PDT,Max TemperatureF,Mean TemperatureF,Min TemperatureF,Max Dew PointF,MeanDew PointF,Min DewpointF,Max Humidity, Mean Humidity, Min Humidity, Max Sea Level PressureIn, Mean Sea Level PressureIn, Min Sea Level PressureIn, Max VisibilityMiles, Mean VisibilityMiles, Min VisibilityMiles, Max Wind SpeedMPH, Mean Wind SpeedMPH, Max Gust SpeedMPH,PrecipitationIn, CloudCover, Events, WindDirDegrees
2013-8-1,81,73,65,57,56,55,73,59,45,30.02,29.97,29.90,10,7,4,10,2,16,0.00,4,,191
2013-8-2,82,74,66,59,58,56,73,58,42,29.96,29.93,29.89,10,9,6,12,4,17,0.00,3,,194
2013-8-3,83,76,68,59,58,57,68,57,45,29.99,29.96,29.92,10,9,7,10,3,15,0.00,3,,214
2013-8-4,82,74,66,60,58,57,73,60,46,30.01,29.97,29.91,10,7,4,12,3,16,0.00,3,,253
2013-8-5,83,73,63,58,57,56,84,64,43,30.00,29.97,29.91,10,6,2,10,3,15,0.00,4,,192
2013-8-6,82,72,64,58,57,54,78,59,39,30.03,29.99,29.96,10,9,7,10,4,15,0.00,4,,216
2013-8-7,82,73,64,57,57,54,78,59,39,30.08,30.02,29.96,10,9,5,10,2,17,0.00,3,,208
2013-8-8,81,72,62,58,57,55,78,62,45,29.99,29.95,29.89,10,10,7,12,3,15,0.00,2,,212
2013-8-9,79,72,64,58,57,55,78,63,47,29.96,29.93,29.91,10,10,9,12,4,15,0.00,3,,182
2013-8-10,80,73,65,58,57,55,78,62,45,30.03,29.98,29.94,10,10,9,10,3,14,0.00,4,,188
2013-8-11,83,74,65,58,57,56,73,57,40,29.99,29.95,29.87,10,8,6,12,3,15,0.00,3,,243
2013-8-12,83,74,65,60,58,57,84,64,43,29.97,29.93,29.88,10,9,8,10,3,15,0.00,3,,203
2013-8-13,87,77,66,61,60,58,78,61,44,29.97,29.92,29.86,10,7,5,10,3,14,0.00,4,,189
2013-8-14,84,76,67,61,60,60,81,64,47,29.92,29.89,29.82,10,7,4,10,3,15,0.00,5,,215
2013-8-15,86,77,67,62,61,58,76,60,44,29.94,29.90,29.87,10,7,4,10,3,15,0.00,2,,206
2013-8-16,89,78,67,63,61,59,81,60,39,29.94,29.92,29.88,10,8,4,9,3,15,0.00,0,,205
2013-8-17,91,78,65,62,60,55,87,60,32,29.94,29.89,29.80,10,7,0,12,3,14,0.00,1,Fog,218
2013-8-18,82,74,66,61,60,59,81,65,49,29.91,29.85,29.82,10,8,4,12,3,15,0.00,2,,198
2013-8-19,84,76,68,61,61,59,76,62,47,29.94,29.90,29.85,10,10,8,12,3,15,0.00,4,,199
2013-8-20,91,79,67,61,60,58,81,59,36,29.93,29.88,29.82,10,8,3,10,3,21,0.00,3,,261
2013-8-21,93,79,65,60,56,52,73,52,31,29.92,29.87,29.82,10,10,8,10,3,15,0.00,0,,274
2013-8-22,95,81,67,59,54,45,73,47,20,29.91,29.86,29.79,10,10,10,8,2,,0.00,0,,275
2013-8-23,93,81,68,60,57,51,73,50,26,29.86,29.80,29.72,10,10,10,10,3,15,0.00,0,,182
2013-8-24,84,74,64,61,59,58,84,64,43,29.88,29.81,29.75,10,8,5,10,2,14,0.00,1,,192
2013-8-25,92,78,64,60,59,55,87,60,32,29.91,29.87,29.83,10,6,2,9,3,13,0.00,1,,220
2013-8-26,96,83,69,61,57,46,73,52,31,29.90,29.85,29.80,10,10,9,10,2,14,0.00,1,,259
2013-8-27,95,83,71,62,57,46,68,44,20,29.83,29.80,29.75,10,10,10,10,3,14,0.00,1,,221
2013-8-28,98,85,71,61,56,42,68,47,26,29.88,29.81,29.76,10,10,8,10,3,16,0.00,0,,236
2013-8-29,101,87,73,61,56,46,64,43,22,29.91,29.88,29.84,10,10,10,12,3,15,0.00,0,,246
2013-8-30,98,89,79,69,63,57,54,45,35,29.96,29.92,29.88,10,10,9,14,4,21,0.00,0,,199
2013-8-31,97,88,79,69,65,56,62,50,38,29.95,29.91,29.85,10,10,10,12,3,15,0.00,0,,250